sensor_id;sensor_type;location;lat;lon;timestamp;P1;durP1;ratioP1;P2;durP2;ratioP2
59207;SDS011;44977;53.132;6.408;2024-01-27T00:03:27;21.10;;;5.28;;
59207;SDS011;44977;53.132;6.408;2024-01-27T00:08:28;25.45;;;5.55;;
59207;SDS011;44977;53.132;6.408;2024-01-27T00:13:28;21.77;;;5.10;;
59207;SDS011;44977;53.132;6.408;2024-01-27T00:18:29;23.33;;;5.45;;
59207;SDS011;44977;53.132;6.408;2024-01-27T00:23:30;21.75;;;5.10;;
59207;SDS011;44977;53.132;6.408;2024-01-27T00:28:30;23.92;;;5.25;;
59207;SDS011;44977;53.132;6.408;2024-01-27T00:33:31;22.42;;;5.70;;
59207;SDS011;44977;53.132;6.408;2024-01-27T00:38:32;25.58;;;5.60;;
59207;SDS011;44977;53.132;6.408;2024-01-27T00:43:32;23.75;;;5.82;;
59207;SDS011;44977;53.132;6.408;2024-01-27T00:48:33;20.17;;;4.68;;
59207;SDS011;44977;53.132;6.408;2024-01-27T00:53:34;19.70;;;5.03;;
59207;SDS011;44977;53.132;6.408;2024-01-27T00:58:34;20.90;;;5.15;;
59207;SDS011;44977;53.132;6.408;2024-01-27T01:03:35;24.98;;;5.28;;
59207;SDS011;44977;53.132;6.408;2024-01-27T01:08:36;19.00;;;5.35;;
59207;SDS011;44977;53.132;6.408;2024-01-27T01:13:37;23.27;;;5.18;;
59207;SDS011;44977;53.132;6.408;2024-01-27T01:18:37;22.63;;;4.80;;
59207;SDS011;44977;53.132;6.408;2024-01-27T01:23:38;22.00;;;5.25;;
59207;SDS011;44977;53.132;6.408;2024-01-27T01:28:39;22.77;;;5.47;;
59207;SDS011;44977;53.132;6.408;2024-01-27T01:33:40;18.90;;;5.25;;
59207;SDS011;44977;53.132;6.408;2024-01-27T01:38:40;20.00;;;4.95;;
59207;SDS011;44977;53.132;6.408;2024-01-27T01:43:41;22.58;;;4.95;;
59207;SDS011;44977;53.132;6.408;2024-01-27T01:48:42;24.15;;;4.43;;
59207;SDS011;44977;53.132;6.408;2024-01-27T01:53:43;19.92;;;4.95;;
59207;SDS011;44977;53.132;6.408;2024-01-27T01:58:47;18.27;;;4.97;;
59207;SDS011;44977;53.132;6.408;2024-01-27T02:03:51;19.83;;;5.50;;
59207;SDS011;44977;53.132;6.408;2024-01-27T02:08:55;19.02;;;5.15;;
59207;SDS011;44977;53.132;6.408;2024-01-27T02:13:56;22.42;;;4.95;;
59207;SDS011;44977;53.132;6.408;2024-01-27T02:18:57;22.73;;;5.35;;
59207;SDS011;44977;53.132;6.408;2024-01-27T02:23:57;22.88;;;5.53;;
59207;SDS011;44977;53.132;6.408;2024-01-27T02:28:58;19.35;;;4.88;;
59207;SDS011;44977;53.132;6.408;2024-01-27T02:33:59;21.17;;;5.35;;
59207;SDS011;44977;53.132;6.408;2024-01-27T02:38:59;21.30;;;5.28;;
59207;SDS011;44977;53.132;6.408;2024-01-27T02:44:00;22.40;;;5.50;;
59207;SDS011;44977;53.132;6.408;2024-01-27T02:49:01;22.27;;;5.05;;
59207;SDS011;44977;53.132;6.408;2024-01-27T02:54:01;22.58;;;5.05;;
59207;SDS011;44977;53.132;6.408;2024-01-27T02:59:02;18.52;;;4.88;;
59207;SDS011;44977;53.132;6.408;2024-01-27T03:04:03;19.50;;;4.97;;
59207;SDS011;44977;53.132;6.408;2024-01-27T03:09:04;21.73;;;5.45;;
59207;SDS011;44977;53.132;6.408;2024-01-27T03:14:04;19.92;;;5.32;;
59207;SDS011;44977;53.132;6.408;2024-01-27T03:19:05;20.10;;;5.38;;
59207;SDS011;44977;53.132;6.408;2024-01-27T03:24:06;21.42;;;4.95;;
59207;SDS011;44977;53.132;6.408;2024-01-27T03:29:07;19.77;;;5.00;;
59207;SDS011;44977;53.132;6.408;2024-01-27T03:34:08;23.27;;;4.90;;
59207;SDS011;44977;53.132;6.408;2024-01-27T03:39:08;18.48;;;5.22;;
59207;SDS011;44977;53.132;6.408;2024-01-27T03:44:09;20.88;;;5.40;;
59207;SDS011;44977;53.132;6.408;2024-01-27T03:49:10;21.73;;;5.25;;
59207;SDS011;44977;53.132;6.408;2024-01-27T03:54:10;20.88;;;4.97;;
59207;SDS011;44977;53.132;6.408;2024-01-27T03:59:11;20.67;;;4.80;;
59207;SDS011;44977;53.132;6.408;2024-01-27T04:04:12;19.80;;;4.70;;
59207;SDS011;44977;53.132;6.408;2024-01-27T04:09:13;22.77;;;5.22;;
59207;SDS011;44977;53.132;6.408;2024-01-27T04:14:14;18.08;;;4.50;;
59207;SDS011;44977;53.132;6.408;2024-01-27T04:19:14;19.25;;;4.53;;
59207;SDS011;44977;53.132;6.408;2024-01-27T04:24:15;20.13;;;4.60;;
59207;SDS011;44977;53.132;6.408;2024-01-27T04:29:16;16.85;;;4.93;;
59207;SDS011;44977;53.132;6.408;2024-01-27T04:34:16;20.85;;;4.95;;
59207;SDS011;44977;53.132;6.408;2024-01-27T04:39:17;19.15;;;5.22;;
59207;SDS011;44977;53.132;6.408;2024-01-27T04:44:18;25.33;;;5.80;;
59207;SDS011;44977;53.132;6.408;2024-01-27T04:49:20;19.50;;;4.97;;
59207;SDS011;44977;53.132;6.408;2024-01-27T04:54:22;21.27;;;4.70;;
59207;SDS011;44977;53.132;6.408;2024-01-27T04:59:22;17.05;;;4.50;;
59207;SDS011;44977;53.132;6.408;2024-01-27T05:04:24;22.77;;;5.18;;
59207;SDS011;44977;53.132;6.408;2024-01-27T05:09:26;20.60;;;4.65;;
59207;SDS011;44977;53.132;6.408;2024-01-27T05:14:27;21.25;;;4.53;;
59207;SDS011;44977;53.132;6.408;2024-01-27T05:19:28;21.88;;;4.68;;
59207;SDS011;44977;53.132;6.408;2024-01-27T05:24:28;23.95;;;4.93;;
59207;SDS011;44977;53.132;6.408;2024-01-27T05:29:29;21.50;;;4.78;;
59207;SDS011;44977;53.132;6.408;2024-01-27T05:34:30;19.92;;;4.97;;
59207;SDS011;44977;53.132;6.408;2024-01-27T05:39:30;19.00;;;4.63;;
59207;SDS011;44977;53.132;6.408;2024-01-27T05:44:32;20.52;;;4.93;;
59207;SDS011;44977;53.132;6.408;2024-01-27T05:49:33;22.92;;;5.30;;
59207;SDS011;44977;53.132;6.408;2024-01-27T05:54:33;19.77;;;4.53;;
59207;SDS011;44977;53.132;6.408;2024-01-27T05:59:34;18.85;;;4.68;;
59207;SDS011;44977;53.132;6.408;2024-01-27T06:04:35;20.08;;;4.93;;
59207;SDS011;44977;53.132;6.408;2024-01-27T06:09:39;23.40;;;5.32;;
59207;SDS011;44977;53.132;6.408;2024-01-27T06:14:40;20.33;;;5.18;;
59207;SDS011;44977;53.132;6.408;2024-01-27T06:19:41;20.60;;;5.25;;
59207;SDS011;44977;53.132;6.408;2024-01-27T06:24:43;22.40;;;5.53;;
59207;SDS011;44977;53.132;6.408;2024-01-27T06:29:44;24.33;;;5.32;;
59207;SDS011;44977;53.132;6.408;2024-01-27T06:34:44;23.42;;;5.35;;
59207;SDS011;44977;53.132;6.408;2024-01-27T06:39:45;22.38;;;5.75;;
59207;SDS011;44977;53.132;6.408;2024-01-27T06:44:46;22.10;;;5.57;;
59207;SDS011;44977;53.132;6.408;2024-01-27T06:49:46;24.33;;;5.43;;
59207;SDS011;44977;53.132;6.408;2024-01-27T06:54:47;20.80;;;5.30;;
59207;SDS011;44977;53.132;6.408;2024-01-27T06:59:48;25.02;;;5.90;;
59207;SDS011;44977;53.132;6.408;2024-01-27T07:04:53;22.15;;;6.07;;
59207;SDS011;44977;53.132;6.408;2024-01-27T07:09:57;21.00;;;5.82;;
59207;SDS011;44977;53.132;6.408;2024-01-27T07:14:58;20.35;;;6.00;;
59207;SDS011;44977;53.132;6.408;2024-01-27T07:19:59;28.17;;;6.60;;
59207;SDS011;44977;53.132;6.408;2024-01-27T07:25:00;22.00;;;5.70;;
59207;SDS011;44977;53.132;6.408;2024-01-27T07:30:04;21.50;;;6.20;;
59207;SDS011;44977;53.132;6.408;2024-01-27T07:35:06;20.48;;;6.38;;
59207;SDS011;44977;53.132;6.408;2024-01-27T07:40:08;26.23;;;6.80;;
59207;SDS011;44977;53.132;6.408;2024-01-27T07:45:10;20.48;;;6.55;;
59207;SDS011;44977;53.132;6.408;2024-01-27T07:50:10;27.13;;;7.10;;
59207;SDS011;44977;53.132;6.408;2024-01-27T07:55:11;23.35;;;6.43;;
59207;SDS011;44977;53.132;6.408;2024-01-27T08:00:12;23.40;;;6.00;;
59207;SDS011;44977;53.132;6.408;2024-01-27T08:05:13;27.02;;;6.57;;
59207;SDS011;44977;53.132;6.408;2024-01-27T08:10:14;27.63;;;7.35;;
59207;SDS011;44977;53.132;6.408;2024-01-27T08:15:15;24.83;;;6.63;;
59207;SDS011;44977;53.132;6.408;2024-01-27T08:20:16;22.17;;;7.03;;
59207;SDS011;44977;53.132;6.408;2024-01-27T08:25:17;22.08;;;6.97;;
59207;SDS011;44977;53.132;6.408;2024-01-27T08:30:18;22.85;;;7.35;;
59207;SDS011;44977;53.132;6.408;2024-01-27T08:35:19;22.73;;;7.85;;
59207;SDS011;44977;53.132;6.408;2024-01-27T08:40:20;24.27;;;7.57;;
59207;SDS011;44977;53.132;6.408;2024-01-27T08:45:20;24.67;;;7.32;;
59207;SDS011;44977;53.132;6.408;2024-01-27T08:50:21;24.92;;;7.72;;
59207;SDS011;44977;53.132;6.408;2024-01-27T08:55:22;25.65;;;8.23;;
59207;SDS011;44977;53.132;6.408;2024-01-27T09:00:24;25.20;;;9.30;;
59207;SDS011;44977;53.132;6.408;2024-01-27T09:05:25;24.30;;;9.27;;
59207;SDS011;44977;53.132;6.408;2024-01-27T09:10:28;24.25;;;10.27;;
59207;SDS011;44977;53.132;6.408;2024-01-27T09:15:29;23.33;;;10.43;;
59207;SDS011;44977;53.132;6.408;2024-01-27T09:20:29;25.73;;;10.15;;
59207;SDS011;44977;53.132;6.408;2024-01-27T09:25:30;21.27;;;9.68;;
59207;SDS011;44977;53.132;6.408;2024-01-27T09:30:31;24.85;;;9.85;;
59207;SDS011;44977;53.132;6.408;2024-01-27T09:35:32;29.60;;;10.10;;
59207;SDS011;44977;53.132;6.408;2024-01-27T09:40:32;24.98;;;10.25;;
59207;SDS011;44977;53.132;6.408;2024-01-27T09:45:33;23.23;;;9.85;;
59207;SDS011;44977;53.132;6.408;2024-01-27T09:50:35;24.38;;;9.77;;
59207;SDS011;44977;53.132;6.408;2024-01-27T09:55:37;24.20;;;9.80;;
59207;SDS011;44977;53.132;6.408;2024-01-27T10:00:37;26.08;;;9.80;;
59207;SDS011;44977;53.132;6.408;2024-01-27T10:05:39;23.98;;;8.98;;
59207;SDS011;44977;53.132;6.408;2024-01-27T10:10:42;22.65;;;9.65;;
59207;SDS011;44977;53.132;6.408;2024-01-27T10:15:42;22.65;;;8.85;;
59207;SDS011;44977;53.132;6.408;2024-01-27T10:20:43;22.08;;;8.95;;
59207;SDS011;44977;53.132;6.408;2024-01-27T10:25:44;22.23;;;9.02;;
59207;SDS011;44977;53.132;6.408;2024-01-27T10:30:45;21.30;;;8.90;;
59207;SDS011;44977;53.132;6.408;2024-01-27T10:35:57;20.80;;;8.35;;
59207;SDS011;44977;53.132;6.408;2024-01-27T10:40:58;18.67;;;8.40;;
59207;SDS011;44977;53.132;6.408;2024-01-27T10:46:00;20.35;;;8.15;;
59207;SDS011;44977;53.132;6.408;2024-01-27T10:51:08;23.02;;;8.43;;
59207;SDS011;44977;53.132;6.408;2024-01-27T10:56:10;26.75;;;8.13;;
59207;SDS011;44977;53.132;6.408;2024-01-27T11:01:11;24.45;;;8.02;;
59207;SDS011;44977;53.132;6.408;2024-01-27T11:06:13;20.35;;;7.15;;
59207;SDS011;44977;53.132;6.408;2024-01-27T11:11:16;24.25;;;8.88;;
59207;SDS011;44977;53.132;6.408;2024-01-27T11:16:18;19.33;;;7.70;;
59207;SDS011;44977;53.132;6.408;2024-01-27T11:21:19;19.77;;;7.55;;
59207;SDS011;44977;53.132;6.408;2024-01-27T11:26:20;19.60;;;6.65;;
59207;SDS011;44977;53.132;6.408;2024-01-27T11:31:22;18.33;;;6.80;;
59207;SDS011;44977;53.132;6.408;2024-01-27T11:36:23;18.88;;;6.95;;
59207;SDS011;44977;53.132;6.408;2024-01-27T11:41:28;21.73;;;6.63;;
59207;SDS011;44977;53.132;6.408;2024-01-27T11:46:29;20.10;;;6.03;;
59207;SDS011;44977;53.132;6.408;2024-01-27T11:51:30;19.77;;;5.82;;
59207;SDS011;44977;53.132;6.408;2024-01-27T11:56:30;17.10;;;5.63;;
59207;SDS011;44977;53.132;6.408;2024-01-27T12:01:31;22.35;;;6.20;;
59207;SDS011;44977;53.132;6.408;2024-01-27T12:06:32;23.77;;;6.40;;
59207;SDS011;44977;53.132;6.408;2024-01-27T12:11:32;17.10;;;5.60;;
59207;SDS011;44977;53.132;6.408;2024-01-27T12:16:33;19.17;;;6.68;;
59207;SDS011;44977;53.132;6.408;2024-01-27T12:21:34;19.85;;;6.25;;
59207;SDS011;44977;53.132;6.408;2024-01-27T12:26:35;18.60;;;5.82;;
59207;SDS011;44977;53.132;6.408;2024-01-27T12:31:39;21.52;;;6.00;;
59207;SDS011;44977;53.132;6.408;2024-01-27T12:36:41;20.45;;;5.93;;
59207;SDS011;44977;53.132;6.408;2024-01-27T12:41:42;18.92;;;6.25;;
59207;SDS011;44977;53.132;6.408;2024-01-27T12:46:43;16.38;;;5.43;;
59207;SDS011;44977;53.132;6.408;2024-01-27T12:51:43;19.88;;;5.90;;
59207;SDS011;44977;53.132;6.408;2024-01-27T12:56:45;17.23;;;5.70;;
59207;SDS011;44977;53.132;6.408;2024-01-27T13:01:46;22.80;;;6.70;;
59207;SDS011;44977;53.132;6.408;2024-01-27T13:06:47;19.98;;;6.45;;
59207;SDS011;44977;53.132;6.408;2024-01-27T13:11:47;18.38;;;6.10;;
59207;SDS011;44977;53.132;6.408;2024-01-27T13:16:48;18.38;;;5.95;;
59207;SDS011;44977;53.132;6.408;2024-01-27T13:21:49;19.48;;;6.13;;
59207;SDS011;44977;53.132;6.408;2024-01-27T13:26:50;19.33;;;6.15;;
59207;SDS011;44977;53.132;6.408;2024-01-27T13:31:51;22.17;;;6.03;;
59207;SDS011;44977;53.132;6.408;2024-01-27T13:36:52;19.05;;;5.30;;
59207;SDS011;44977;53.132;6.408;2024-01-27T13:41:54;20.90;;;5.20;;
59207;SDS011;44977;53.132;6.408;2024-01-27T13:46:54;19.73;;;5.60;;
59207;SDS011;44977;53.132;6.408;2024-01-27T13:52:00;17.27;;;5.28;;
59207;SDS011;44977;53.132;6.408;2024-01-27T13:57:02;17.42;;;5.40;;
59207;SDS011;44977;53.132;6.408;2024-01-27T14:02:03;19.48;;;5.53;;
59207;SDS011;44977;53.132;6.408;2024-01-27T14:07:04;15.68;;;4.82;;
59207;SDS011;44977;53.132;6.408;2024-01-27T14:12:09;19.98;;;5.32;;
59207;SDS011;44977;53.132;6.408;2024-01-27T14:17:10;16.25;;;5.68;;
59207;SDS011;44977;53.132;6.408;2024-01-27T14:22:11;16.50;;;5.75;;
59207;SDS011;44977;53.132;6.408;2024-01-27T14:27:11;16.65;;;5.68;;
59207;SDS011;44977;53.132;6.408;2024-01-27T14:32:14;19.75;;;5.95;;
59207;SDS011;44977;53.132;6.408;2024-01-27T14:37:15;19.45;;;5.53;;
59207;SDS011;44977;53.132;6.408;2024-01-27T14:42:16;17.98;;;5.88;;
59207;SDS011;44977;53.132;6.408;2024-01-27T14:47:20;20.08;;;7.45;;
59207;SDS011;44977;53.132;6.408;2024-01-27T14:52:20;22.17;;;8.20;;
59207;SDS011;44977;53.132;6.408;2024-01-27T14:57:22;22.10;;;8.18;;
59207;SDS011;44977;53.132;6.408;2024-01-27T15:02:23;19.38;;;7.82;;
59207;SDS011;44977;53.132;6.408;2024-01-27T15:07:24;25.42;;;8.90;;
59207;SDS011;44977;53.132;6.408;2024-01-27T15:12:29;22.17;;;8.93;;
59207;SDS011;44977;53.132;6.408;2024-01-27T15:17:30;21.65;;;9.00;;
59207;SDS011;44977;53.132;6.408;2024-01-27T15:22:31;20.55;;;8.18;;
59207;SDS011;44977;53.132;6.408;2024-01-27T15:27:31;23.95;;;9.10;;
59207;SDS011;44977;53.132;6.408;2024-01-27T15:32:32;21.75;;;8.55;;
59207;SDS011;44977;53.132;6.408;2024-01-27T15:37:33;23.05;;;8.85;;
59207;SDS011;44977;53.132;6.408;2024-01-27T15:42:33;20.13;;;7.55;;
59207;SDS011;44977;53.132;6.408;2024-01-27T15:47:34;25.35;;;9.05;;
59207;SDS011;44977;53.132;6.408;2024-01-27T15:52:35;23.05;;;9.68;;
59207;SDS011;44977;53.132;6.408;2024-01-27T15:57:35;26.08;;;9.93;;
59207;SDS011;44977;53.132;6.408;2024-01-27T16:02:37;25.42;;;10.45;;
59207;SDS011;44977;53.132;6.408;2024-01-27T16:07:38;24.10;;;10.65;;
59207;SDS011;44977;53.132;6.408;2024-01-27T16:12:39;27.55;;;10.90;;
59207;SDS011;44977;53.132;6.408;2024-01-27T16:17:41;25.92;;;11.50;;
59207;SDS011;44977;53.132;6.408;2024-01-27T16:22:42;22.30;;;10.88;;
59207;SDS011;44977;53.132;6.408;2024-01-27T16:27:42;27.15;;;11.23;;
59207;SDS011;44977;53.132;6.408;2024-01-27T16:32:43;25.27;;;10.60;;
59207;SDS011;44977;53.132;6.408;2024-01-27T16:37:44;23.45;;;9.75;;
59207;SDS011;44977;53.132;6.408;2024-01-27T16:42:45;23.00;;;9.25;;
59207;SDS011;44977;53.132;6.408;2024-01-27T16:47:46;22.52;;;8.27;;
59207;SDS011;44977;53.132;6.408;2024-01-27T16:52:47;23.30;;;8.05;;
59207;SDS011;44977;53.132;6.408;2024-01-27T16:57:48;22.00;;;9.52;;
59207;SDS011;44977;53.132;6.408;2024-01-27T17:02:48;22.42;;;9.68;;
59207;SDS011;44977;53.132;6.408;2024-01-27T17:07:49;25.88;;;12.60;;
59207;SDS011;44977;53.132;6.408;2024-01-27T17:12:50;22.38;;;9.88;;
59207;SDS011;44977;53.132;6.408;2024-01-27T17:17:50;25.35;;;9.18;;
59207;SDS011;44977;53.132;6.408;2024-01-27T17:22:51;21.75;;;8.60;;
59207;SDS011;44977;53.132;6.408;2024-01-27T17:27:51;24.23;;;10.73;;
59207;SDS011;44977;53.132;6.408;2024-01-27T17:32:52;18.40;;;8.45;;
59207;SDS011;44977;53.132;6.408;2024-01-27T17:37:53;23.50;;;9.73;;
59207;SDS011;44977;53.132;6.408;2024-01-27T17:42:53;24.38;;;10.43;;
59207;SDS011;44977;53.132;6.408;2024-01-27T17:47:54;19.98;;;10.25;;
59207;SDS011;44977;53.132;6.408;2024-01-27T17:52:55;25.35;;;11.45;;
59207;SDS011;44977;53.132;6.408;2024-01-27T17:57:56;22.05;;;10.77;;
59207;SDS011;44977;53.132;6.408;2024-01-27T18:02:56;25.70;;;12.00;;
59207;SDS011;44977;53.132;6.408;2024-01-27T18:07:57;21.27;;;11.70;;
59207;SDS011;44977;53.132;6.408;2024-01-27T18:12:58;24.80;;;12.48;;
59207;SDS011;44977;53.132;6.408;2024-01-27T18:17:58;24.50;;;12.80;;
59207;SDS011;44977;53.132;6.408;2024-01-27T18:23:00;21.10;;;10.98;;
59207;SDS011;44977;53.132;6.408;2024-01-27T18:28:01;23.42;;;12.70;;
59207;SDS011;44977;53.132;6.408;2024-01-27T18:33:03;24.83;;;12.68;;
59207;SDS011;44977;53.132;6.408;2024-01-27T18:38:04;22.65;;;11.77;;
59207;SDS011;44977;53.132;6.408;2024-01-27T18:43:05;22.13;;;11.88;;
59207;SDS011;44977;53.132;6.408;2024-01-27T18:48:05;26.70;;;12.95;;
59207;SDS011;44977;53.132;6.408;2024-01-27T18:53:06;24.50;;;12.65;;
59207;SDS011;44977;53.132;6.408;2024-01-27T18:58:07;26.55;;;13.15;;
59207;SDS011;44977;53.132;6.408;2024-01-27T19:03:08;26.05;;;13.15;;
59207;SDS011;44977;53.132;6.408;2024-01-27T19:08:09;25.00;;;13.00;;
59207;SDS011;44977;53.132;6.408;2024-01-27T19:13:13;26.25;;;12.88;;
59207;SDS011;44977;53.132;6.408;2024-01-27T19:18:14;26.33;;;14.20;;
59207;SDS011;44977;53.132;6.408;2024-01-27T19:23:14;27.17;;;15.63;;
59207;SDS011;44977;53.132;6.408;2024-01-27T19:28:15;28.23;;;13.88;;
59207;SDS011;44977;53.132;6.408;2024-01-27T19:33:16;25.52;;;13.55;;
59207;SDS011;44977;53.132;6.408;2024-01-27T19:38:16;24.95;;;13.38;;
59207;SDS011;44977;53.132;6.408;2024-01-27T19:43:17;25.23;;;13.23;;
59207;SDS011;44977;53.132;6.408;2024-01-27T19:48:18;22.17;;;11.90;;
59207;SDS011;44977;53.132;6.408;2024-01-27T19:53:18;23.42;;;12.25;;
59207;SDS011;44977;53.132;6.408;2024-01-27T19:58:19;21.40;;;11.55;;
59207;SDS011;44977;53.132;6.408;2024-01-27T20:03:22;23.45;;;11.50;;
59207;SDS011;44977;53.132;6.408;2024-01-27T20:08:23;24.90;;;12.45;;
59207;SDS011;44977;53.132;6.408;2024-01-27T20:13:23;21.83;;;11.57;;
59207;SDS011;44977;53.132;6.408;2024-01-27T20:18:24;25.92;;;12.45;;
59207;SDS011;44977;53.132;6.408;2024-01-27T20:23:25;23.70;;;12.10;;
59207;SDS011;44977;53.132;6.408;2024-01-27T20:28:25;25.08;;;13.40;;
59207;SDS011;44977;53.132;6.408;2024-01-27T20:33:26;24.90;;;13.85;;
59207;SDS011;44977;53.132;6.408;2024-01-27T20:38:27;22.58;;;13.68;;
59207;SDS011;44977;53.132;6.408;2024-01-27T20:43:27;22.55;;;13.30;;
59207;SDS011;44977;53.132;6.408;2024-01-27T20:48:28;21.80;;;12.70;;
59207;SDS011;44977;53.132;6.408;2024-01-27T20:53:29;23.10;;;13.75;;
59207;SDS011;44977;53.132;6.408;2024-01-27T20:58:30;24.17;;;14.50;;
59207;SDS011;44977;53.132;6.408;2024-01-27T21:03:30;26.65;;;15.27;;
59207;SDS011;44977;53.132;6.408;2024-01-27T21:08:31;30.40;;;16.88;;
59207;SDS011;44977;53.132;6.408;2024-01-27T21:13:32;23.95;;;15.68;;
59207;SDS011;44977;53.132;6.408;2024-01-27T21:18:33;25.67;;;15.75;;
59207;SDS011;44977;53.132;6.408;2024-01-27T21:23:33;29.02;;;14.35;;
59207;SDS011;44977;53.132;6.408;2024-01-27T21:28:34;29.10;;;15.35;;
59207;SDS011;44977;53.132;6.408;2024-01-27T21:33:35;24.55;;;15.07;;
59207;SDS011;44977;53.132;6.408;2024-01-27T21:38:35;25.35;;;14.90;;
59207;SDS011;44977;53.132;6.408;2024-01-27T21:43:36;29.52;;;14.88;;
59207;SDS011;44977;53.132;6.408;2024-01-27T21:48:36;25.27;;;14.70;;
59207;SDS011;44977;53.132;6.408;2024-01-27T21:53:38;31.33;;;16.00;;
59207;SDS011;44977;53.132;6.408;2024-01-27T21:58:40;28.52;;;16.52;;
59207;SDS011;44977;53.132;6.408;2024-01-27T22:03:41;29.27;;;15.45;;
59207;SDS011;44977;53.132;6.408;2024-01-27T22:08:42;26.05;;;14.40;;
59207;SDS011;44977;53.132;6.408;2024-01-27T22:13:42;31.30;;;14.85;;
59207;SDS011;44977;53.132;6.408;2024-01-27T22:18:44;25.20;;;14.70;;
59207;SDS011;44977;53.132;6.408;2024-01-27T22:23:45;27.25;;;15.57;;
59207;SDS011;44977;53.132;6.408;2024-01-27T22:28:45;25.52;;;15.18;;
59207;SDS011;44977;53.132;6.408;2024-01-27T22:33:46;25.52;;;14.15;;
59207;SDS011;44977;53.132;6.408;2024-01-27T22:38:50;23.15;;;15.15;;
59207;SDS011;44977;53.132;6.408;2024-01-27T22:43:51;24.70;;;13.60;;
59207;SDS011;44977;53.132;6.408;2024-01-27T22:48:55;24.52;;;14.32;;
59207;SDS011;44977;53.132;6.408;2024-01-27T22:53:56;27.90;;;14.57;;
59207;SDS011;44977;53.132;6.408;2024-01-27T22:58:56;24.25;;;14.75;;
59207;SDS011;44977;53.132;6.408;2024-01-27T23:03:57;25.63;;;14.65;;
59207;SDS011;44977;53.132;6.408;2024-01-27T23:08:58;25.13;;;15.15;;
59207;SDS011;44977;53.132;6.408;2024-01-27T23:13:58;24.00;;;14.13;;
59207;SDS011;44977;53.132;6.408;2024-01-27T23:18:59;25.88;;;14.90;;
59207;SDS011;44977;53.132;6.408;2024-01-27T23:24:00;25.75;;;13.85;;
59207;SDS011;44977;53.132;6.408;2024-01-27T23:29:01;24.60;;;14.38;;
59207;SDS011;44977;53.132;6.408;2024-01-27T23:34:01;25.65;;;13.07;;
59207;SDS011;44977;53.132;6.408;2024-01-27T23:39:02;26.92;;;13.57;;
59207;SDS011;44977;53.132;6.408;2024-01-27T23:44:03;22.02;;;13.30;;
59207;SDS011;44977;53.132;6.408;2024-01-27T23:49:04;22.70;;;13.52;;
59207;SDS011;44977;53.132;6.408;2024-01-27T23:54:04;24.67;;;14.23;;
59207;SDS011;44977;53.132;6.408;2024-01-27T23:59:12;24.25;;;13.35;;
